Time;durP1;ratioP1;P1;durP2;ratioP2;P2;SDS_P1;SDS_P2;PMS_P1;PMS_P2;Temp;Humidity;BMP_temperature;BMP_pressure;BME280_temperature;BME280_humidity;BME280_pressure;Samples;Min_cycle;Max_cycle;Signal;HPM_P1;HPM_P2
2021/05/20 00:02:08;;;;;;;2.07;0.90;;;9.50;99.90;;;;;;5035282;28;20465;-81
2021/05/20 00:04:34;;;;;;;1.07;0.70;;;9.50;99.90;;;;;;5035294;28;20499;-80
2021/05/20 00:06:59;;;;;;;1.20;0.60;;;9.40;99.90;;;;;;5041001;23;20582;-70
2021/05/20 00:09:25;;;;;;;1.53;0.80;;;9.40;99.90;;;;;;5033923;28;20181;-69
2021/05/20 00:11:51;;;;;;;2.40;0.60;;;9.30;99.90;;;;;;5029292;28;20269;-69
2021/05/20 00:14:16;;;;;;;0.60;0.50;;;9.30;99.90;;;;;;5015953;28;20184;-69
2021/05/20 00:16:42;;;;;;;1.07;0.73;;;9.30;99.90;;;;;;5015911;28;20211;-69
2021/05/20 00:19:07;;;;;;;0.53;0.53;;;9.30;99.90;;;;;;5034041;28;20178;-69
2021/05/20 00:21:34;;;;;;;1.57;0.90;;;9.30;99.90;;;;;;5032687;28;20738;-69
2021/05/20 00:23:59;;;;;;;2.83;0.80;;;9.30;99.90;;;;;;5033391;28;20223;-69
2021/05/20 00:26:25;;;;;;;0.60;0.60;;;9.30;99.90;;;;;;5033459;28;20448;-69
2021/05/20 00:28:50;;;;;;;0.90;0.90;;;9.40;99.90;;;;;;5033410;28;20173;-69
2021/05/20 00:31:16;;;;;;;2.20;0.90;;;9.40;99.90;;;;;;5015396;28;20181;-69
2021/05/20 00:33:42;;;;;;;0.60;0.60;;;9.40;99.90;;;;;;4999365;28;20181;-68
2021/05/20 00:36:08;;;;;;;1.23;0.73;;;9.40;99.90;;;;;;5033162;28;20485;-69
2021/05/20 00:38:33;;;;;;;2.53;0.83;;;9.40;99.90;;;;;;5033422;28;20187;-69
2021/05/20 00:41:00;;;;;;;1.47;0.80;;;9.40;99.90;;;;;;5033587;28;20548;-69
2021/05/20 00:43:26;;;;;;;0.60;0.60;;;9.30;99.90;;;;;;5033354;28;20303;-70
2021/05/20 00:45:52;;;;;;;3.23;0.90;;;9.30;99.90;;;;;;5033228;28;20404;-69
2021/05/20 00:48:18;;;;;;;2.40;1.00;;;9.30;99.90;;;;;;5032961;28;20431;-69
2021/05/20 00:50:43;;;;;;;1.47;0.80;;;9.20;99.90;;;;;;5015130;28;20185;-69
2021/05/20 00:53:11;;;;;;;3.37;0.70;;;9.10;99.90;;;;;;5033407;28;20177;-69
2021/05/20 00:55:38;;;;;;;0.60;0.60;;;9.10;99.90;;;;;;5033333;28;20593;-72
2021/05/20 00:58:06;;;;;;;3.00;1.10;;;9.10;99.90;;;;;;5032823;28;20538;-72
2021/05/20 01:00:32;;;;;;;2.20;1.00;;;9.10;99.90;;;;;;5034281;28;20951;-71
2021/05/20 01:02:57;;;;;;;2.73;1.10;;;9.00;99.90;;;;;;5033148;28;20463;-70
2021/05/20 01:05:23;;;;;;;1.73;0.80;;;9.10;99.90;;;;;;5032877;28;20187;-70
2021/05/20 01:07:48;;;;;;;1.80;0.80;;;9.10;99.90;;;;;;5014993;28;20681;-70
2021/05/20 01:10:14;;;;;;;0.80;0.70;;;9.10;99.90;;;;;;5032745;28;20702;-70
2021/05/20 01:12:40;;;;;;;0.70;0.70;;;9.10;99.90;;;;;;5015058;28;20182;-70
2021/05/20 01:15:19;;;;;;;1.63;1.17;;;9.10;99.90;;;;;;5032606;28;20181;-70
2021/05/20 01:17:56;;;;;;;1.00;1.00;;;9.20;99.90;;;;;;5032585;28;20455;-70
2021/05/20 01:20:26;;;;;;;1.00;0.90;;;9.30;99.90;;;;;;5015089;28;20766;-70
2021/05/20 01:23:00;;;;;;;0.93;0.77;;;9.20;99.90;;;;;;5032438;28;20463;-70
2021/05/20 01:25:26;;;;;;;0.90;0.90;;;9.20;99.90;;;;;;5011014;28;20435;-71
2021/05/20 01:27:53;;;;;;;0.60;0.60;;;9.20;99.90;;;;;;5014360;28;21036;-70
2021/05/20 01:30:19;;;;;;;1.07;0.70;;;9.10;99.90;;;;;;5032523;28;20173;-70
2021/05/20 01:32:45;;;;;;;1.63;0.80;;;9.00;99.90;;;;;;5032348;28;20420;-70
2021/05/20 01:35:11;;;;;;;0.83;0.80;;;9.00;99.90;;;;;;5014719;28;20432;-70
2021/05/20 01:37:37;;;;;;;0.90;0.90;;;8.90;99.90;;;;;;5031430;28;20714;-70
2021/05/20 01:40:03;;;;;;;1.53;0.70;;;8.80;99.90;;;;;;5032060;28;20428;-71
2021/05/20 01:42:28;;;;;;;1.23;0.80;;;8.70;99.90;;;;;;5031833;28;20206;-71
2021/05/20 01:44:54;;;;;;;0.60;0.60;;;8.70;99.90;;;;;;5032108;28;20472;-71
2021/05/20 01:47:20;;;;;;;2.73;0.73;;;8.60;99.90;;;;;;5031755;28;20197;-70
2021/05/20 01:49:50;;;;;;;1.83;0.70;;;8.50;99.90;;;;;;5014150;28;20185;-71
2021/05/20 01:52:16;;;;;;;0.90;0.90;;;8.50;99.90;;;;;;5032134;28;20208;-70
2021/05/20 01:54:42;;;;;;;2.43;0.70;;;8.40;99.90;;;;;;5031691;28;20536;-71
2021/05/20 01:57:07;;;;;;;0.93;0.70;;;8.30;99.90;;;;;;5031665;28;20205;-70
2021/05/20 01:59:33;;;;;;;1.20;1.10;;;8.30;99.90;;;;;;5031742;28;20180;-70
2021/05/20 02:01:58;;;;;;;1.40;0.90;;;8.20;99.90;;;;;;5031957;28;20210;-70
2021/05/20 02:04:24;;;;;;;1.10;0.90;;;8.10;99.90;;;;;;5031411;28;20198;-71
2021/05/20 02:06:50;;;;;;;0.90;0.80;;;8.10;99.90;;;;;;5031666;28;20211;-70
2021/05/20 02:09:15;;;;;;;1.23;1.10;;;8.00;99.90;;;;;;5031729;28;20539;-70
2021/05/20 02:11:41;;;;;;;1.77;1.20;;;8.00;99.90;;;;;;5031674;28;20188;-70
2021/05/20 02:14:07;;;;;;;1.30;1.20;;;7.90;99.90;;;;;;5031063;28;20184;-70
2021/05/20 02:16:32;;;;;;;0.93;0.93;;;7.90;99.90;;;;;;5031530;28;20194;-70
2021/05/20 02:18:58;;;;;;;0.90;0.90;;;7.90;99.90;;;;;;5031757;28;20172;-70
2021/05/20 02:21:23;;;;;;;3.43;1.07;;;7.90;99.90;;;;;;5031463;28;20202;-72
2021/05/20 02:23:49;;;;;;;4.20;1.63;;;7.80;99.90;;;;;;5031364;28;20675;-70
2021/05/20 02:26:15;;;;;;;3.27;1.10;;;7.80;99.90;;;;;;5031504;28;20672;-70
2021/05/20 02:28:41;;;;;;;5.03;1.80;;;7.80;99.90;;;;;;5031650;28;20258;-70
2021/05/20 02:31:07;;;;;;;5.23;1.67;;;7.80;99.90;;;;;;5013137;28;20179;-70
2021/05/20 02:33:32;;;;;;;2.90;1.40;;;7.80;99.90;;;;;;5013618;28;20600;-70
2021/05/20 02:35:58;;;;;;;3.03;1.10;;;7.80;99.90;;;;;;5031359;28;20489;-70
2021/05/20 02:38:23;;;;;;;1.60;1.17;;;7.90;99.90;;;;;;5031406;28;20228;-70
2021/05/20 02:40:49;;;;;;;3.50;1.40;;;7.90;99.90;;;;;;5030830;28;20256;-70
2021/05/20 02:43:14;;;;;;;1.43;1.03;;;7.90;99.90;;;;;;5031186;28;20217;-70
2021/05/20 02:45:40;;;;;;;0.87;0.87;;;7.90;99.90;;;;;;5030891;28;20601;-70
2021/05/20 02:48:06;;;;;;;1.13;0.97;;;7.90;99.90;;;;;;5032468;28;20199;-71
2021/05/20 02:50:32;;;;;;;1.20;1.10;;;8.00;99.90;;;;;;5032213;28;20660;-71
2021/05/20 02:52:57;;;;;;;0.90;0.90;;;8.00;99.90;;;;;;5014968;28;20204;-70
2021/05/20 02:55:24;;;;;;;0.97;0.87;;;8.00;99.90;;;;;;5032265;28;20188;-71
2021/05/20 02:57:59;;;;;;;1.20;0.83;;;8.10;99.90;;;;;;5032760;28;20636;-71
2021/05/20 03:00:33;;;;;;;1.10;1.07;;;8.10;99.90;;;;;;5032703;28;20433;-71
2021/05/20 03:03:00;;;;;;;2.47;1.47;;;8.20;99.90;;;;;;5014319;28;20456;-71
2021/05/20 03:05:26;;;;;;;2.70;1.30;;;8.20;99.90;;;;;;5050459;23;20883;-73
2021/05/20 03:07:55;;;;;;;0.87;0.87;;;8.30;99.90;;;;;;5031519;28;20498;-70
2021/05/20 03:10:21;;;;;;;3.43;1.50;;;8.30;99.90;;;;;;5031392;28;20415;-70
2021/05/20 03:12:46;;;;;;;1.53;1.10;;;8.40;99.90;;;;;;5033347;28;20422;-70
2021/05/20 03:15:12;;;;;;;1.10;1.10;;;8.40;99.90;;;;;;5035343;28;20431;-70
2021/05/20 03:17:38;;;;;;;1.93;1.30;;;8.40;99.90;;;;;;5035029;28;20204;-70
2021/05/20 03:20:05;;;;;;;1.87;1.30;;;8.40;99.90;;;;;;5035152;28;20934;-70
2021/05/20 03:22:31;;;;;;;0.90;0.90;;;8.50;99.90;;;;;;5017190;28;20219;-71
2021/05/20 03:24:56;;;;;;;2.27;1.10;;;8.50;99.90;;;;;;5035345;28;20495;-70
2021/05/20 03:27:22;;;;;;;3.70;1.20;;;8.50;99.90;;;;;;5035031;28;20206;-70
2021/05/20 03:29:48;;;;;;;2.00;1.03;;;8.50;99.90;;;;;;5034875;28;20175;-70
2021/05/20 03:32:13;;;;;;;0.80;0.80;;;8.50;99.90;;;;;;5016895;28;20671;-70
2021/05/20 03:34:39;;;;;;;2.27;1.10;;;8.50;99.90;;;;;;5035000;28;20652;-70
2021/05/20 03:37:05;;;;;;;1.00;0.97;;;8.60;99.90;;;;;;5035176;28;20207;-70
2021/05/20 03:39:31;;;;;;;0.97;0.97;;;8.60;99.90;;;;;;5035546;28;20256;-71
2021/05/20 03:41:57;;;;;;;1.43;1.10;;;8.70;99.90;;;;;;5034988;28;20197;-72
2021/05/20 03:44:22;;;;;;;1.37;1.10;;;8.70;99.90;;;;;;5035031;28;20407;-72
2021/05/20 03:46:48;;;;;;;1.70;1.07;;;8.70;99.90;;;;;;5035452;28;20196;-72
2021/05/20 03:49:13;;;;;;;0.90;0.90;;;8.70;99.90;;;;;;5035183;28;20224;-71
2021/05/20 03:51:39;;;;;;;2.10;0.73;;;8.80;99.90;;;;;;5035038;28;20205;-71
2021/05/20 03:54:05;;;;;;;0.70;0.70;;;8.80;99.90;;;;;;5034751;28;20648;-71
2021/05/20 03:56:31;;;;;;;0.90;0.70;;;8.80;99.90;;;;;;5034581;28;20205;-71
2021/05/20 03:58:56;;;;;;;1.77;1.17;;;8.80;99.90;;;;;;5016835;28;20467;-71
2021/05/20 04:01:22;;;;;;;0.80;0.80;;;8.80;99.90;;;;;;5034130;28;20197;-71
2021/05/20 04:03:47;;;;;;;3.87;0.73;;;8.80;99.90;;;;;;5016486;28;20646;-71
2021/05/20 04:06:13;;;;;;;1.47;1.00;;;8.80;99.90;;;;;;5033816;28;20187;-71
2021/05/20 04:08:38;;;;;;;0.80;0.80;;;8.80;99.90;;;;;;5034034;28;20176;-71
2021/05/20 04:11:04;;;;;;;1.00;1.00;;;8.80;99.90;;;;;;5034024;28;20652;-71
2021/05/20 04:13:32;;;;;;;2.50;0.80;;;8.70;99.90;;;;;;5034009;28;20172;-71
2021/05/20 04:15:58;;;;;;;2.27;0.70;;;8.80;99.90;;;;;;5034149;28;20242;-71
2021/05/20 04:18:24;;;;;;;1.63;1.10;;;8.80;99.90;;;;;;5016346;28;20942;-71
2021/05/20 04:20:51;;;;;;;0.67;0.60;;;8.90;99.90;;;;;;5034225;28;20427;-71
2021/05/20 04:23:17;;;;;;;1.53;0.70;;;9.00;99.90;;;;;;5033529;28;20279;-71
2021/05/20 04:25:43;;;;;;;1.67;0.87;;;9.10;99.90;;;;;;5016541;28;20427;-72
2021/05/20 04:28:09;;;;;;;1.53;0.77;;;9.20;99.90;;;;;;5016771;28;20201;-71
2021/05/20 04:30:35;;;;;;;1.63;0.80;;;9.30;99.90;;;;;;5034650;28;20485;-72
2021/05/20 04:33:03;;;;;;;1.50;0.90;;;9.40;99.90;;;;;;5034275;28;20492;-71
2021/05/20 04:35:28;;;;;;;0.63;0.60;;;9.50;99.90;;;;;;5034137;28;20431;-71
2021/05/20 04:37:54;;;;;;;0.80;0.60;;;9.60;99.90;;;;;;5033493;28;20671;-72
2021/05/20 04:40:20;;;;;;;0.70;0.60;;;9.70;99.90;;;;;;5034482;28;20649;-72
2021/05/20 04:42:45;;;;;;;0.73;0.73;;;9.80;99.90;;;;;;5015811;28;20216;-71
2021/05/20 04:45:12;;;;;;;0.93;0.70;;;9.80;99.90;;;;;;5015851;28;20725;-71
2021/05/20 04:47:37;;;;;;;4.20;0.60;;;9.90;99.90;;;;;;5031748;28;20552;-71
2021/05/20 04:50:04;;;;;;;3.37;0.90;;;10.10;99.90;;;;;;5033304;28;20424;-71
2021/05/20 04:52:30;;;;;;;1.33;1.23;;;10.20;99.90;;;;;;5033427;28;20184;-72
2021/05/20 04:54:55;;;;;;;2.90;1.40;;;10.40;99.90;;;;;;5022398;23;20635;-75
2021/05/20 04:57:21;;;;;;;1.17;0.70;;;10.50;99.90;;;;;;5013980;28;20267;-72
2021/05/20 04:59:46;;;;;;;0.60;0.60;;;10.60;99.90;;;;;;5018485;28;20180;-75
2021/05/20 05:02:12;;;;;;;0.70;0.70;;;10.90;99.90;;;;;;5032570;28;20251;-73
2021/05/20 05:04:38;;;;;;;1.50;0.87;;;11.10;99.90;;;;;;5014319;28;20641;-74
2021/05/20 05:07:03;;;;;;;0.60;0.60;;;11.30;99.90;;;;;;5012818;28;20213;-73
2021/05/20 05:09:29;;;;;;;0.97;0.60;;;11.60;99.90;;;;;;5031857;28;20253;-74
2021/05/20 05:11:54;;;;;;;1.20;1.10;;;12.10;99.90;;;;;;5032339;28;20264;-74
2021/05/20 05:14:20;;;;;;;0.87;0.80;;;12.30;99.90;;;;;;5032267;28;20182;-74
2021/05/20 05:16:45;;;;;;;2.50;0.70;;;12.20;99.90;;;;;;5031731;28;20275;-74
2021/05/20 05:19:11;;;;;;;0.60;0.60;;;11.90;99.90;;;;;;5032000;28;20179;-74
2021/05/20 05:21:36;;;;;;;0.97;0.90;;;11.60;99.90;;;;;;5028653;28;20189;-73
2021/05/20 05:24:02;;;;;;;1.93;0.70;;;11.40;99.90;;;;;;5013001;28;20209;-74
2021/05/20 05:26:28;;;;;;;1.30;0.57;;;11.20;99.90;;;;;;5027227;28;20197;-75
2021/05/20 05:28:53;;;;;;;2.20;0.60;;;11.00;99.90;;;;;;5031769;28;20561;-72
2021/05/20 05:31:23;;;;;;;1.17;0.80;;;10.90;99.90;;;;;;5032100;28;20184;-72
2021/05/20 05:33:48;;;;;;;1.60;1.17;;;10.80;99.90;;;;;;5031337;28;20227;-72
2021/05/20 05:36:14;;;;;;;0.70;0.70;;;10.80;99.90;;;;;;5031482;28;21022;-72
2021/05/20 05:38:39;;;;;;;2.53;1.07;;;11.00;99.90;;;;;;5013730;28;20796;-72
2021/05/20 05:41:05;;;;;;;1.93;1.10;;;11.00;99.90;;;;;;5031747;28;20532;-72
2021/05/20 05:43:30;;;;;;;8.27;0.80;;;11.00;99.90;;;;;;5031513;28;20178;-73
2021/05/20 05:45:56;;;;;;;0.87;0.83;;;11.20;99.90;;;;;;5031468;28;20198;-72
2021/05/20 05:48:22;;;;;;;0.77;0.67;;;11.30;99.90;;;;;;5014403;28;20162;-71
2021/05/20 05:50:50;;;;;;;0.60;0.60;;;11.60;99.90;;;;;;5031409;28;20409;-72
2021/05/20 05:53:15;;;;;;;1.00;0.90;;;11.70;99.90;;;;;;5030956;28;20312;-73
2021/05/20 05:55:41;;;;;;;0.90;0.90;;;11.80;99.90;;;;;;5030911;28;20539;-72
2021/05/20 05:58:07;;;;;;;3.90;0.90;;;11.90;99.90;;;;;;5031224;28;20567;-72
2021/05/20 06:00:32;;;;;;;1.50;0.70;;;12.00;99.90;;;;;;5031512;28;20186;-72
2021/05/20 06:02:58;;;;;;;1.33;0.90;;;12.00;99.90;;;;;;5030989;28;20563;-73
2021/05/20 06:05:23;;;;;;;0.70;0.70;;;12.10;99.90;;;;;;5030691;28;20263;-72
2021/05/20 06:07:49;;;;;;;3.13;0.93;;;12.10;99.90;;;;;;5031065;28;20265;-72
2021/05/20 06:10:14;;;;;;;2.00;0.80;;;12.30;99.90;;;;;;5012668;28;20178;-72
2021/05/20 06:12:40;;;;;;;1.10;1.00;;;12.30;99.90;;;;;;5031009;28;20189;-73
2021/05/20 06:15:07;;;;;;;1.70;0.70;;;12.40;99.90;;;;;;5012977;28;20272;-72
2021/05/20 06:17:36;;;;;;;1.20;0.90;;;12.50;99.90;;;;;;5031441;28;20265;-72
2021/05/20 06:20:01;;;;;;;1.70;0.80;;;12.80;99.90;;;;;;5031397;28;20474;-73
2021/05/20 06:22:27;;;;;;;2.10;0.93;;;12.60;99.90;;;;;;5030957;28;20464;-74
2021/05/20 06:24:52;;;;;;;1.03;0.93;;;12.80;99.90;;;;;;5031055;28;20631;-72
2021/05/20 06:27:18;;;;;;;0.90;0.90;;;12.90;99.90;;;;;;5013363;28;20201;-72
2021/05/20 06:29:43;;;;;;;1.27;1.10;;;12.80;99.90;;;;;;5031171;28;20362;-73
2021/05/20 06:32:09;;;;;;;0.70;0.70;;;12.50;99.90;;;;;;5013714;28;20186;-73
2021/05/20 06:34:35;;;;;;;1.03;0.93;;;12.50;99.90;;;;;;5030798;28;20213;-72
2021/05/20 06:37:02;;;;;;;1.10;1.00;;;12.40;99.90;;;;;;5029881;28;20281;-73
2021/05/20 06:39:29;;;;;;;2.50;1.00;;;12.40;99.90;;;;;;5030167;28;20907;-74
2021/05/20 06:41:58;;;;;;;2.93;1.17;;;12.40;99.90;;;;;;5030648;28;20898;-73
2021/05/20 06:44:23;;;;;;;2.30;1.20;;;12.40;99.90;;;;;;5030831;28;20846;-72
2021/05/20 06:46:49;;;;;;;1.83;1.23;;;12.40;99.90;;;;;;5012682;28;20523;-73
2021/05/20 06:49:15;;;;;;;1.47;1.00;;;12.50;99.90;;;;;;5030741;28;20174;-74
2021/05/20 06:51:40;;;;;;;1.90;1.20;;;12.80;99.90;;;;;;5030283;28;20273;-72
2021/05/20 06:54:06;;;;;;;0.80;0.80;;;13.00;99.90;;;;;;5012522;28;20182;-72
2021/05/20 06:56:32;;;;;;;5.27;1.37;;;13.10;99.90;;;;;;5030646;28;20679;-73
2021/05/20 07:01:46;;;;;;;3.33;1.40;;;13.30;99.90;;;;;;5031015;28;20598;-72
2021/05/20 07:04:16;;;;;;;2.30;1.40;;;13.10;99.90;;;;;;5030553;28;20499;-73
2021/05/20 07:06:42;;;;;;;1.00;0.90;;;13.30;99.90;;;;;;5027102;28;20953;-73
2021/05/20 07:09:08;;;;;;;0.80;0.80;;;13.40;99.90;;;;;;5027439;28;20436;-73
2021/05/20 07:11:33;;;;;;;2.23;1.30;;;13.30;99.90;;;;;;5029487;28;20429;-72
2021/05/20 07:13:59;;;;;;;1.40;0.97;;;13.40;99.90;;;;;;5012124;28;20244;-72
2021/05/20 07:16:25;;;;;;;2.60;1.10;;;13.30;99.90;;;;;;5028026;28;20679;-73
2021/05/20 07:18:51;;;;;;;2.50;1.30;;;13.10;99.90;;;;;;5009539;28;20228;-73
2021/05/20 07:21:16;;;;;;;1.50;1.10;;;13.10;99.90;;;;;;5028504;28;20429;-73
2021/05/20 07:23:42;;;;;;;6.40;1.40;;;13.10;99.90;;;;;;5012640;28;20176;-74
2021/05/20 07:26:07;;;;;;;1.53;1.10;;;13.10;99.90;;;;;;5029767;28;20583;-74
2021/05/20 07:28:33;;;;;;;1.70;1.20;;;13.10;99.90;;;;;;5030256;28;20188;-74
2021/05/20 07:30:59;;;;;;;9.13;1.50;;;13.30;99.90;;;;;;5030144;28;20256;-73
2021/05/20 07:33:25;;;;;;;1.60;1.20;;;13.50;99.90;;;;;;5029936;28;20201;-74
2021/05/20 07:35:51;;;;;;;1.10;1.00;;;13.70;99.90;;;;;;5029887;28;20193;-74
2021/05/20 07:38:16;;;;;;;2.00;1.00;;;13.80;99.90;;;;;;5023621;28;20436;-74
2021/05/20 07:40:42;;;;;;;1.40;1.30;;;13.90;99.90;;;;;;5029553;28;20185;-73
2021/05/20 07:43:08;;;;;;;1.00;1.00;;;14.00;99.90;;;;;;5030129;28;20224;-74
2021/05/20 07:45:33;;;;;;;1.90;0.90;;;14.20;99.90;;;;;;5012497;28;20840;-73
2021/05/20 07:47:59;;;;;;;1.47;1.03;;;14.30;99.90;;;;;;5030485;28;20186;-74
2021/05/20 07:50:25;;;;;;;1.03;1.03;;;14.60;99.90;;;;;;5030448;28;20209;-74
2021/05/20 07:52:50;;;;;;;0.70;0.70;;;15.10;99.90;;;;;;5029668;28;20206;-74
2021/05/20 07:55:16;;;;;;;1.27;0.90;;;15.10;99.90;;;;;;5030225;28;20189;-74
2021/05/20 07:57:42;;;;;;;1.00;0.87;;;15.20;99.90;;;;;;5030276;28;20236;-74
2021/05/20 08:00:09;;;;;;;0.80;0.80;;;15.50;99.90;;;;;;5034409;28;20443;-74
2021/05/20 08:05:45;;;;;;;0.70;0.70;;;15.50;99.90;;;;;;4957170;28;20466;-74
2021/05/20 08:08:26;;;;;;;0.70;0.70;;;15.20;99.90;;;;;;5024206;28;20467;-74
2021/05/20 08:11:02;;;;;;;0.90;0.90;;;15.20;99.90;;;;;;5033430;28;20419;-74
2021/05/20 08:13:28;;;;;;;0.77;0.77;;;15.10;99.90;;;;;;5033574;28;20420;-75
2021/05/20 08:15:53;;;;;;;0.80;0.80;;;15.10;99.90;;;;;;5015522;28;20436;-74
2021/05/20 08:18:19;;;;;;;1.10;0.70;;;15.00;99.90;;;;;;5033804;28;20932;-74
2021/05/20 08:20:45;;;;;;;1.30;0.67;;;14.90;99.90;;;;;;5033028;28;20178;-75
2021/05/20 08:23:10;;;;;;;0.90;0.70;;;14.70;99.90;;;;;;5032813;28;20213;-74
2021/05/20 08:25:36;;;;;;;1.37;0.80;;;14.60;99.90;;;;;;5033169;28;20190;-75
2021/05/20 08:28:01;;;;;;;0.90;0.70;;;14.40;99.90;;;;;;5033111;28;20182;-74
2021/05/20 08:30:27;;;;;;;0.70;0.70;;;14.50;99.90;;;;;;5032525;28;20308;-75
2021/05/20 08:32:52;;;;;;;0.80;0.80;;;14.60;99.90;;;;;;5032662;28;20217;-74
2021/05/20 08:35:18;;;;;;;1.37;0.60;;;14.70;99.90;;;;;;5034305;28;20174;-74
2021/05/20 08:37:44;;;;;;;1.67;0.90;;;14.90;99.90;;;;;;5015237;28;20178;-73
2021/05/20 08:40:12;;;;;;;0.80;0.60;;;14.90;99.90;;;;;;5033112;28;20312;-74
2021/05/20 08:42:38;;;;;;;1.27;0.87;;;14.70;99.90;;;;;;5032638;28;20611;-74
2021/05/20 08:45:18;;;;;;;0.70;0.70;;;14.90;99.90;;;;;;5032682;28;20429;-73
2021/05/20 08:47:45;;;;;;;0.90;0.90;;;15.00;99.90;;;;;;5032969;28;20413;-73
2021/05/20 08:50:12;;;;;;;2.00;0.70;;;14.90;99.90;;;;;;5033091;28;20418;-73
2021/05/20 08:52:39;;;;;;;0.70;0.70;;;14.90;99.90;;;;;;5031750;28;20420;-73
2021/05/20 08:55:08;;;;;;;2.27;0.80;;;15.30;99.90;;;;;;5032254;28;20448;-71
2021/05/20 08:57:33;;;;;;;1.20;0.70;;;15.70;99.90;;;;;;5032457;28;20910;-73
2021/05/20 08:59:59;;;;;;;1.13;0.90;;;16.10;99.90;;;;;;5032671;28;20424;-73
2021/05/20 09:02:29;;;;;;;1.13;0.70;;;17.20;99.90;;;;;;5032246;28;20211;-73
2021/05/20 09:04:57;;;;;;;1.53;0.60;;;17.90;99.90;;;;;;5032074;28;20178;-74
2021/05/20 09:07:30;;;;;;;1.10;0.60;;;18.40;99.90;;;;;;5031327;28;20452;-73
2021/05/20 09:10:18;;;;;;;0.87;0.70;;;18.70;99.90;;;;;;5031202;28;20429;-73
2021/05/20 09:12:45;;;;;;;2.70;0.90;;;18.80;99.90;;;;;;5031854;28;20441;-71
2021/05/20 09:15:35;;;;;;;0.50;0.40;;;18.40;99.90;;;;;;5031643;28;20441;-73
2021/05/20 09:18:12;;;;;;;1.63;0.63;;;18.40;99.90;;;;;;5017860;28;20507;-72
2021/05/20 09:20:49;;;;;;;0.80;0.73;;;18.40;99.90;;;;;;5020938;28;20450;-72
2021/05/20 09:23:17;;;;;;;1.73;0.60;;;18.60;99.90;;;;;;5022793;28;20472;-72
2021/05/20 09:25:45;;;;;;;1.37;0.60;;;18.90;99.90;;;;;;5024223;28;20483;-72
2021/05/20 09:28:12;;;;;;;0.63;0.63;;;18.70;99.90;;;;;;5032241;28;20424;-72
2021/05/20 09:30:41;;;;;;;0.80;0.53;;;18.30;99.90;;;;;;5031903;28;20441;-72
2021/05/20 09:33:12;;;;;;;0.60;0.60;;;18.00;99.90;;;;;;5031537;28;20428;-73
2021/05/20 09:35:40;;;;;;;0.60;0.60;;;17.80;99.90;;;;;;5030478;28;20958;-71
2021/05/20 09:38:11;;;;;;;0.80;0.70;;;17.30;99.90;;;;;;5031416;28;20926;-71
2021/05/20 09:40:42;;;;;;;1.00;0.50;;;17.30;99.90;;;;;;5031698;28;20985;-71
2021/05/20 09:43:31;;;;;;;1.03;0.60;;;16.90;99.90;;;;;;5014230;28;20477;-71
2021/05/20 09:45:59;;;;;;;0.70;0.70;;;16.50;99.90;;;;;;5031369;28;20491;-72
2021/05/20 09:48:26;;;;;;;1.53;0.83;;;16.40;99.90;;;;;;5032043;28;20906;-72
2021/05/20 09:50:56;;;;;;;2.20;0.70;;;16.40;99.90;;;;;;5031150;28;20424;-71
2021/05/20 09:53:23;;;;;;;2.93;0.70;;;16.40;99.90;;;;;;5031689;28;20420;-71
2021/05/20 09:55:58;;;;;;;1.53;0.60;;;16.50;99.90;;;;;;5031033;28;20464;-71
2021/05/20 09:58:29;;;;;;;4.63;1.00;;;17.00;99.90;;;;;;5031901;28;20465;-71
2021/05/20 10:00:56;;;;;;;0.60;0.50;;;18.30;99.90;;;;;;5031391;28;20451;-72
2021/05/20 10:03:23;;;;;;;2.00;0.60;;;19.50;99.90;;;;;;5011999;28;20457;-72
2021/05/20 10:05:53;;;;;;;1.17;0.57;;;20.10;99.90;;;;;;5019431;28;20452;-72
2021/05/20 10:08:22;;;;;;;0.70;0.60;;;20.70;99.90;;;;;;5031963;28;20787;-73
2021/05/20 10:10:49;;;;;;;0.83;0.60;;;21.40;99.90;;;;;;5031354;28;20499;-72
2021/05/20 10:13:17;;;;;;;0.50;0.40;;;22.10;99.90;;;;;;5013712;28;20439;-72
2021/05/20 10:15:44;;;;;;;0.60;0.57;;;21.90;99.90;;;;;;5030917;28;20523;-72
2021/05/20 10:18:18;;;;;;;1.90;0.40;;;22.30;99.90;;;;;;5031686;28;20926;-72
2021/05/20 10:20:46;;;;;;;0.77;0.40;;;22.70;99.90;;;;;;5030880;28;20840;-73
2021/05/20 10:23:24;;;;;;;1.23;0.40;;;22.50;99.90;;;;;;5030440;28;20472;-72
2021/05/20 10:25:51;;;;;;;1.47;0.50;;;22.30;99.90;;;;;;5031510;28;20466;-73
2021/05/20 10:28:19;;;;;;;1.53;0.50;;;22.40;99.90;;;;;;5030986;28;20514;-72
2021/05/20 10:30:58;;;;;;;0.50;0.50;;;21.80;99.90;;;;;;5013413;28;20506;-72
2021/05/20 10:33:26;;;;;;;0.60;0.40;;;21.30;99.90;;;;;;5031143;28;20924;-72
2021/05/20 10:35:53;;;;;;;0.60;0.50;;;21.40;99.90;;;;;;5030823;28;20827;-72
2021/05/20 10:38:32;;;;;;;1.70;0.40;;;21.60;99.90;;;;;;5013216;28;20813;-72
2021/05/20 10:41:07;;;;;;;0.60;0.60;;;21.80;99.90;;;;;;5030516;28;20440;-72
2021/05/20 10:43:33;;;;;;;1.03;0.50;;;22.60;99.90;;;;;;5031158;28;20456;-72
2021/05/20 10:46:01;;;;;;;1.47;0.50;;;22.70;99.90;;;;;;5031493;28;20488;-73
2021/05/20 10:48:28;;;;;;;0.50;0.50;;;23.10;99.90;;;;;;5031347;28;20169;-73
2021/05/20 10:50:56;;;;;;;3.43;0.60;;;22.70;99.90;;;;;;5030581;28;20910;-73
2021/05/20 10:53:46;;;;;;;0.60;0.50;;;21.80;99.90;;;;;;5030356;28;20436;-72
2021/05/20 10:56:12;;;;;;;2.03;0.50;;;21.30;99.90;;;;;;5030157;28;20460;-73
2021/05/20 10:58:38;;;;;;;2.60;0.40;;;20.90;99.90;;;;;;5030615;28;20776;-73
2021/05/20 11:01:31;;;;;;;1.30;0.50;;;20.80;99.90;;;;;;5030754;28;20232;-72
2021/05/20 11:04:05;;;;;;;0.80;0.70;;;20.40;99.90;;;;;;5030062;28;20515;-72
2021/05/20 11:06:43;;;;;;;1.10;0.50;;;20.10;99.90;;;;;;5030953;28;20482;-72
2021/05/20 11:09:14;;;;;;;1.40;0.40;;;19.90;99.90;;;;;;5013428;28;20551;-72
2021/05/20 11:11:39;;;;;;;0.50;0.40;;;20.20;99.90;;;;;;5030443;28;20816;-72
2021/05/20 11:14:14;;;;;;;0.60;0.40;;;20.40;99.90;;;;;;5030494;28;20491;-72
2021/05/20 11:16:44;;;;;;;1.37;0.50;;;20.70;99.90;;;;;;5030545;28;20193;-72
2021/05/20 11:19:22;;;;;;;4.93;0.40;;;20.70;99.90;;;;;;5031041;28;20464;-72
2021/05/20 11:24:28;;;;;;;1.83;0.67;;;20.50;99.90;;;;;;5030768;28;20413;-71
2021/05/20 11:26:56;;;;;;;0.80;0.40;;;19.70;99.90;;;;;;5030520;28;20433;-71
2021/05/20 11:29:24;;;;;;;0.90;0.40;;;19.10;99.90;;;;;;5030521;28;20760;-70
2021/05/20 11:31:51;;;;;;;2.10;0.57;;;18.70;99.90;;;;;;5030351;28;20424;-71
2021/05/20 11:36:46;;;;;;;0.60;0.60;;;18.20;99.90;;;;;;5034148;28;20484;-70
2021/05/20 11:39:18;;;;;;;1.00;0.50;;;18.00;99.90;;;;;;5034318;28;20424;-70
2021/05/20 11:41:45;;;;;;;1.33;0.60;;;17.70;99.90;;;;;;5034170;28;20455;-70
2021/05/20 11:44:13;;;;;;;1.07;0.60;;;17.80;99.90;;;;;;5034096;28;20436;-70
2021/05/20 11:46:40;;;;;;;0.60;0.60;;;18.10;99.90;;;;;;5033892;28;20449;-70
2021/05/20 11:49:18;;;;;;;3.43;0.50;;;18.20;99.90;;;;;;5034627;28;20766;-71
2021/05/20 11:51:52;;;;;;;1.63;0.60;;;18.40;99.90;;;;;;5035610;28;20467;-71
2021/05/20 11:54:21;;;;;;;1.20;0.60;;;18.80;99.90;;;;;;5025675;28;20915;-70
2021/05/20 11:56:55;;;;;;;0.60;0.50;;;19.30;99.90;;;;;;5020731;28;20982;-73
2021/05/20 11:59:42;;;;;;;3.13;0.60;;;19.70;99.90;;;;;;5025397;28;20445;-73
2021/05/20 12:02:34;;;;;;;1.43;1.00;;;20.10;99.90;;;;;;5020483;28;20992;-71
2021/05/20 12:05:04;;;;;;;1.13;0.50;;;19.90;99.90;;;;;;5022972;28;20536;-71
2021/05/20 12:07:31;;;;;;;0.63;0.60;;;19.70;99.90;;;;;;5021419;28;20511;-72
2021/05/20 12:10:17;;;;;;;1.47;0.50;;;18.70;99.90;;;;;;5029072;28;20412;-72
2021/05/20 12:12:47;;;;;;;0.77;0.77;;;18.30;99.90;;;;;;5029344;28;20428;-72
2021/05/20 12:15:25;;;;;;;1.17;0.67;;;18.20;99.90;;;;;;5030169;28;20514;-71
2021/05/20 12:17:51;;;;;;;1.60;0.40;;;17.90;99.90;;;;;;5021557;28;20443;-71
2021/05/20 12:20:21;;;;;;;0.60;0.60;;;17.80;99.90;;;;;;5028602;28;20420;-72
2021/05/20 12:22:48;;;;;;;0.50;0.50;;;17.80;99.90;;;;;;5013464;28;20462;-72
2021/05/20 12:25:24;;;;;;;0.60;0.50;;;17.80;99.90;;;;;;5022690;28;20433;-71
2021/05/20 12:27:52;;;;;;;0.77;0.40;;;17.70;99.90;;;;;;5028781;28;20434;-71
2021/05/20 12:30:19;;;;;;;0.50;0.43;;;17.80;99.90;;;;;;5030113;28;20524;-71
2021/05/20 12:32:49;;;;;;;2.87;0.50;;;17.90;99.90;;;;;;5029240;28;20425;-71
2021/05/20 12:35:18;;;;;;;0.50;0.50;;;18.20;99.90;;;;;;5029487;28;20976;-71
2021/05/20 12:38:00;;;;;;;2.37;0.70;;;18.40;99.90;;;;;;5030220;28;20503;-71
2021/05/20 12:40:28;;;;;;;1.23;0.50;;;18.60;99.90;;;;;;5027730;28;20467;-71
2021/05/20 12:43:07;;;;;;;1.57;0.40;;;18.60;99.90;;;;;;5011106;28;20461;-71
2021/05/20 12:45:44;;;;;;;0.73;0.40;;;18.40;99.90;;;;;;5020838;28;20536;-71
2021/05/20 12:48:24;;;;;;;1.47;0.40;;;18.10;99.90;;;;;;5019569;28;20438;-71
2021/05/20 12:50:50;;;;;;;0.80;0.50;;;18.00;99.90;;;;;;5018574;28;20412;-71
2021/05/20 12:53:34;;;;;;;1.07;0.60;;;17.80;99.90;;;;;;5024788;28;20440;-74
2021/05/20 12:56:04;;;;;;;0.50;0.40;;;17.80;99.90;;;;;;5028977;28;20539;-73
2021/05/20 12:58:56;;;;;;;0.47;0.40;;;18.30;99.90;;;;;;5027803;28;20436;-73
2021/05/20 13:01:25;;;;;;;0.97;0.40;;;18.90;99.90;;;;;;5028378;28;20486;-73
2021/05/20 13:03:53;;;;;;;1.83;0.40;;;19.30;99.90;;;;;;5006418;28;20464;-74
2021/05/20 13:06:21;;;;;;;0.67;0.50;;;19.30;99.90;;;;;;5018312;28;20445;-74